sensor_id;sensor_type;location;lat;lon;timestamp;P1;durP1;ratioP1;P2;durP2;ratioP2
10596;SDS011;5346;48.766;8.674;2022-10-26T00:01:32;5.30;;;1.98;;
10596;SDS011;5346;48.766;8.674;2022-10-26T00:04:15;8.35;;;2.00;;
10596;SDS011;5346;48.766;8.674;2022-10-26T00:06:45;5.00;;;1.70;;
10596;SDS011;5346;48.766;8.674;2022-10-26T00:09:21;6.43;;;2.13;;
10596;SDS011;5346;48.766;8.674;2022-10-26T00:11:48;2.30;;;1.55;;
10596;SDS011;5346;48.766;8.674;2022-10-26T00:14:17;4.40;;;1.75;;
10596;SDS011;5346;48.766;8.674;2022-10-26T00:16:51;3.58;;;1.83;;
10596;SDS011;5346;48.766;8.674;2022-10-26T00:19:18;4.78;;;2.17;;
10596;SDS011;5346;48.766;8.674;2022-10-26T00:21:48;4.53;;;1.90;;
10596;SDS011;5346;48.766;8.674;2022-10-26T00:24:22;5.18;;;1.63;;
10596;SDS011;5346;48.766;8.674;2022-10-26T00:26:50;4.40;;;1.80;;
10596;SDS011;5346;48.766;8.674;2022-10-26T00:29:19;4.55;;;1.85;;
10596;SDS011;5346;48.766;8.674;2022-10-26T00:31:53;5.60;;;1.85;;
10596;SDS011;5346;48.766;8.674;2022-10-26T00:34:21;3.17;;;1.67;;
10596;SDS011;5346;48.766;8.674;2022-10-26T00:36:48;4.63;;;1.80;;
10596;SDS011;5346;48.766;8.674;2022-10-26T00:39:22;2.88;;;1.75;;
10596;SDS011;5346;48.766;8.674;2022-10-26T00:41:50;4.57;;;1.65;;
10596;SDS011;5346;48.766;8.674;2022-10-26T00:47:17;6.65;;;1.92;;
10596;SDS011;5346;48.766;8.674;2022-10-26T00:49:50;6.82;;;1.92;;
10596;SDS011;5346;48.766;8.674;2022-10-26T00:52:33;2.53;;;1.77;;
10596;SDS011;5346;48.766;8.674;2022-10-26T00:55:02;7.05;;;2.22;;
10596;SDS011;5346;48.766;8.674;2022-10-26T00:57:37;3.40;;;1.92;;
10596;SDS011;5346;48.766;8.674;2022-10-26T01:00:06;8.07;;;1.73;;
10596;SDS011;5346;48.766;8.674;2022-10-26T01:02:34;5.13;;;1.80;;
10596;SDS011;5346;48.766;8.674;2022-10-26T01:05:07;3.88;;;1.58;;
10596;SDS011;5346;48.766;8.674;2022-10-26T01:07:42;4.68;;;1.60;;
10596;SDS011;5346;48.766;8.674;2022-10-26T01:10:19;2.28;;;1.50;;
10596;SDS011;5346;48.766;8.674;2022-10-26T01:12:46;4.68;;;1.75;;
10596;SDS011;5346;48.766;8.674;2022-10-26T01:15:17;7.03;;;2.03;;
10596;SDS011;5346;48.766;8.674;2022-10-26T01:18:05;3.22;;;2.00;;
10596;SDS011;5346;48.766;8.674;2022-10-26T01:20:51;2.47;;;1.83;;
10596;SDS011;5346;48.766;8.674;2022-10-26T01:29:42;2.90;;;1.90;;
10596;SDS011;5346;48.766;8.674;2022-10-26T01:32:26;6.50;;;2.03;;
10596;SDS011;5346;48.766;8.674;2022-10-26T01:38:05;4.22;;;1.88;;
10596;SDS011;5346;48.766;8.674;2022-10-26T01:40:53;8.02;;;2.10;;
10596;SDS011;5346;48.766;8.674;2022-10-26T01:43:29;5.30;;;1.98;;
10596;SDS011;5346;48.766;8.674;2022-10-26T01:46:07;2.42;;;1.70;;
10596;SDS011;5346;48.766;8.674;2022-10-26T01:48:43;4.50;;;1.70;;
10596;SDS011;5346;48.766;8.674;2022-10-26T01:51:20;3.38;;;2.08;;
10596;SDS011;5346;48.766;8.674;2022-10-26T01:53:48;3.00;;;1.85;;
10596;SDS011;5346;48.766;8.674;2022-10-26T01:56:20;5.80;;;1.90;;
10596;SDS011;5346;48.766;8.674;2022-10-26T02:01:39;5.95;;;2.15;;
10596;SDS011;5346;48.766;8.674;2022-10-26T02:13:04;2.10;;;1.65;;
10596;SDS011;5346;48.766;8.674;2022-10-26T02:15:48;4.30;;;1.98;;
10596;SDS011;5346;48.766;8.674;2022-10-26T02:18:39;5.50;;;1.60;;
10596;SDS011;5346;48.766;8.674;2022-10-26T02:21:35;4.90;;;1.50;;
10596;SDS011;5346;48.766;8.674;2022-10-26T02:24:05;6.68;;;1.58;;
10596;SDS011;5346;48.766;8.674;2022-10-26T02:26:45;2.92;;;1.70;;
10596;SDS011;5346;48.766;8.674;2022-10-26T02:29:16;2.95;;;1.50;;
10596;SDS011;5346;48.766;8.674;2022-10-26T02:31:45;3.20;;;1.75;;
10596;SDS011;5346;48.766;8.674;2022-10-26T02:34:24;3.13;;;1.50;;
10596;SDS011;5346;48.766;8.674;2022-10-26T02:36:54;3.35;;;1.40;;
10596;SDS011;5346;48.766;8.674;2022-10-26T02:39:32;2.80;;;1.40;;
10596;SDS011;5346;48.766;8.674;2022-10-26T02:42:02;2.70;;;1.58;;
10596;SDS011;5346;48.766;8.674;2022-10-26T02:44:35;3.22;;;1.40;;
10596;SDS011;5346;48.766;8.674;2022-10-26T02:47:23;2.05;;;1.35;;
10596;SDS011;5346;48.766;8.674;2022-10-26T02:49:51;4.95;;;1.55;;
10596;SDS011;5346;48.766;8.674;2022-10-26T02:52:25;2.78;;;1.40;;
10596;SDS011;5346;48.766;8.674;2022-10-26T02:55:37;2.53;;;1.55;;
10596;SDS011;5346;48.766;8.674;2022-10-26T02:58:12;3.75;;;1.38;;
10596;SDS011;5346;48.766;8.674;2022-10-26T03:00:59;4.30;;;1.50;;
10596;SDS011;5346;48.766;8.674;2022-10-26T03:03:32;6.50;;;1.75;;
10596;SDS011;5346;48.766;8.674;2022-10-26T03:06:07;5.20;;;1.33;;
10596;SDS011;5346;48.766;8.674;2022-10-26T03:08:34;3.42;;;1.80;;
10596;SDS011;5346;48.766;8.674;2022-10-26T03:11:02;3.60;;;1.48;;
10596;SDS011;5346;48.766;8.674;2022-10-26T03:13:36;5.75;;;1.52;;
10596;SDS011;5346;48.766;8.674;2022-10-26T03:16:04;1.75;;;1.40;;
10596;SDS011;5346;48.766;8.674;2022-10-26T03:18:31;3.53;;;1.60;;
10596;SDS011;5346;48.766;8.674;2022-10-26T03:21:08;5.50;;;1.60;;
10596;SDS011;5346;48.766;8.674;2022-10-26T03:23:36;1.35;;;1.08;;
10596;SDS011;5346;48.766;8.674;2022-10-26T03:26:03;4.72;;;1.70;;
10596;SDS011;5346;48.766;8.674;2022-10-26T03:28:37;4.78;;;1.70;;
10596;SDS011;5346;48.766;8.674;2022-10-26T03:31:07;4.95;;;1.58;;
10596;SDS011;5346;48.766;8.674;2022-10-26T03:33:38;2.33;;;1.30;;
10596;SDS011;5346;48.766;8.674;2022-10-26T03:36:15;5.25;;;1.40;;
10596;SDS011;5346;48.766;8.674;2022-10-26T03:38:42;2.40;;;1.38;;
10596;SDS011;5346;48.766;8.674;2022-10-26T03:41:10;1.52;;;1.27;;
10596;SDS011;5346;48.766;8.674;2022-10-26T03:43:46;2.50;;;1.40;;
10596;SDS011;5346;48.766;8.674;2022-10-26T03:46:14;2.90;;;1.10;;
10596;SDS011;5346;48.766;8.674;2022-10-26T03:48:44;6.35;;;1.60;;
10596;SDS011;5346;48.766;8.674;2022-10-26T03:51:18;3.33;;;1.35;;
10596;SDS011;5346;48.766;8.674;2022-10-26T03:53:45;3.72;;;1.10;;
10596;SDS011;5346;48.766;8.674;2022-10-26T03:56:12;4.07;;;1.33;;
10596;SDS011;5346;48.766;8.674;2022-10-26T03:58:47;4.00;;;1.20;;
10596;SDS011;5346;48.766;8.674;2022-10-26T04:01:17;7.15;;;1.45;;
10596;SDS011;5346;48.766;8.674;2022-10-26T04:03:44;1.67;;;1.20;;
10596;SDS011;5346;48.766;8.674;2022-10-26T04:06:19;3.30;;;1.33;;
10596;SDS011;5346;48.766;8.674;2022-10-26T04:08:54;5.22;;;1.95;;
10596;SDS011;5346;48.766;8.674;2022-10-26T04:11:35;5.75;;;1.50;;
10596;SDS011;5346;48.766;8.674;2022-10-26T04:14:09;4.72;;;1.40;;
10596;SDS011;5346;48.766;8.674;2022-10-26T04:16:36;5.60;;;1.80;;
10596;SDS011;5346;48.766;8.674;2022-10-26T04:19:13;3.53;;;1.50;;
10596;SDS011;5346;48.766;8.674;2022-10-26T04:21:40;2.00;;;1.30;;
10596;SDS011;5346;48.766;8.674;2022-10-26T04:24:09;5.68;;;1.60;;
10596;SDS011;5346;48.766;8.674;2022-10-26T04:26:43;3.80;;;1.48;;
10596;SDS011;5346;48.766;8.674;2022-10-26T04:29:11;9.18;;;1.20;;
10596;SDS011;5346;48.766;8.674;2022-10-26T04:31:39;6.60;;;1.77;;
10596;SDS011;5346;48.766;8.674;2022-10-26T04:34:15;4.40;;;1.42;;
10596;SDS011;5346;48.766;8.674;2022-10-26T04:36:43;5.40;;;1.30;;
10596;SDS011;5346;48.766;8.674;2022-10-26T04:39:10;6.38;;;1.60;;
10596;SDS011;5346;48.766;8.674;2022-10-26T04:41:44;3.17;;;1.40;;
10596;SDS011;5346;48.766;8.674;2022-10-26T04:44:12;9.10;;;2.35;;
10596;SDS011;5346;48.766;8.674;2022-10-26T04:46:39;3.28;;;1.55;;
10596;SDS011;5346;48.766;8.674;2022-10-26T04:49:13;2.17;;;1.52;;
10596;SDS011;5346;48.766;8.674;2022-10-26T04:51:45;4.28;;;1.80;;
10596;SDS011;5346;48.766;8.674;2022-10-26T04:54:13;5.47;;;1.83;;
10596;SDS011;5346;48.766;8.674;2022-10-26T04:56:46;2.63;;;1.70;;
10596;SDS011;5346;48.766;8.674;2022-10-26T04:59:17;3.92;;;1.98;;
10596;SDS011;5346;48.766;8.674;2022-10-26T05:01:47;4.55;;;1.67;;
10596;SDS011;5346;48.766;8.674;2022-10-26T05:04:28;3.38;;;1.73;;
10596;SDS011;5346;48.766;8.674;2022-10-26T05:06:56;3.90;;;1.70;;
10596;SDS011;5346;48.766;8.674;2022-10-26T05:09:30;3.63;;;1.90;;
10596;SDS011;5346;48.766;8.674;2022-10-26T05:11:57;5.40;;;1.50;;
10596;SDS011;5346;48.766;8.674;2022-10-26T05:14:27;2.70;;;1.70;;
10596;SDS011;5346;48.766;8.674;2022-10-26T05:17:01;3.47;;;1.80;;
10596;SDS011;5346;48.766;8.674;2022-10-26T05:19:31;5.35;;;1.80;;
10596;SDS011;5346;48.766;8.674;2022-10-26T05:21:58;5.72;;;1.70;;
10596;SDS011;5346;48.766;8.674;2022-10-26T05:24:32;5.30;;;1.70;;
10596;SDS011;5346;48.766;8.674;2022-10-26T05:27:00;6.50;;;1.73;;
10596;SDS011;5346;48.766;8.674;2022-10-26T05:29:27;6.30;;;2.05;;
10596;SDS011;5346;48.766;8.674;2022-10-26T05:32:05;4.65;;;1.98;;
10596;SDS011;5346;48.766;8.674;2022-10-26T05:34:33;4.22;;;1.77;;
10596;SDS011;5346;48.766;8.674;2022-10-26T05:37:06;9.90;;;2.33;;
10596;SDS011;5346;48.766;8.674;2022-10-26T05:39:42;4.95;;;2.00;;
10596;SDS011;5346;48.766;8.674;2022-10-26T05:42:10;10.63;;;2.10;;
10596;SDS011;5346;48.766;8.674;2022-10-26T05:44:40;7.68;;;1.80;;
10596;SDS011;5346;48.766;8.674;2022-10-26T05:47:14;4.63;;;1.90;;
10596;SDS011;5346;48.766;8.674;2022-10-26T05:49:41;5.90;;;1.77;;
10596;SDS011;5346;48.766;8.674;2022-10-26T05:52:09;7.80;;;1.90;;
10596;SDS011;5346;48.766;8.674;2022-10-26T05:54:43;4.22;;;2.13;;
10596;SDS011;5346;48.766;8.674;2022-10-26T05:57:13;4.45;;;1.80;;
10596;SDS011;5346;48.766;8.674;2022-10-26T05:59:41;5.00;;;2.00;;
10596;SDS011;5346;48.766;8.674;2022-10-26T06:02:24;3.78;;;1.80;;
10596;SDS011;5346;48.766;8.674;2022-10-26T06:05:02;6.22;;;2.17;;
10596;SDS011;5346;48.766;8.674;2022-10-26T06:07:43;5.97;;;2.05;;
10596;SDS011;5346;48.766;8.674;2022-10-26T06:10:11;5.75;;;1.55;;
10596;SDS011;5346;48.766;8.674;2022-10-26T06:12:41;10.18;;;2.08;;
10596;SDS011;5346;48.766;8.674;2022-10-26T06:15:20;9.45;;;2.20;;
10596;SDS011;5346;48.766;8.674;2022-10-26T06:31:49;7.15;;;2.40;;
10596;SDS011;5346;48.766;8.674;2022-10-26T06:34:22;4.25;;;2.35;;
10596;SDS011;5346;48.766;8.674;2022-10-26T06:37:03;4.72;;;2.10;;
10596;SDS011;5346;48.766;8.674;2022-10-26T06:39:34;7.57;;;2.35;;
10596;SDS011;5346;48.766;8.674;2022-10-26T06:42:19;9.18;;;2.75;;
10596;SDS011;5346;48.766;8.674;2022-10-26T06:44:47;10.10;;;3.00;;
10596;SDS011;5346;48.766;8.674;2022-10-26T06:47:22;8.50;;;2.60;;
10596;SDS011;5346;48.766;8.674;2022-10-26T06:55:39;10.40;;;3.33;;
10596;SDS011;5346;48.766;8.674;2022-10-26T06:58:20;8.27;;;2.67;;
10596;SDS011;5346;48.766;8.674;2022-10-26T07:00:54;11.80;;;3.25;;
10596;SDS011;5346;48.766;8.674;2022-10-26T07:03:35;7.47;;;2.72;;
10596;SDS011;5346;48.766;8.674;2022-10-26T07:06:17;11.23;;;3.40;;
10596;SDS011;5346;48.766;8.674;2022-10-26T07:08:51;10.13;;;3.13;;
10596;SDS011;5346;48.766;8.674;2022-10-26T07:11:18;8.18;;;2.83;;
10596;SDS011;5346;48.766;8.674;2022-10-26T07:13:46;8.55;;;2.70;;
10596;SDS011;5346;48.766;8.674;2022-10-26T07:16:22;9.00;;;3.30;;
10596;SDS011;5346;48.766;8.674;2022-10-26T07:18:53;9.35;;;2.97;;
10596;SDS011;5346;48.766;8.674;2022-10-26T07:21:23;7.82;;;2.60;;
10596;SDS011;5346;48.766;8.674;2022-10-26T07:23:57;8.35;;;3.53;;
10596;SDS011;5346;48.766;8.674;2022-10-26T07:26:24;11.15;;;2.80;;
10596;SDS011;5346;48.766;8.674;2022-10-26T07:28:52;9.63;;;3.55;;
10596;SDS011;5346;48.766;8.674;2022-10-26T07:31:30;9.63;;;2.72;;
10596;SDS011;5346;48.766;8.674;2022-10-26T07:33:58;10.00;;;2.90;;
10596;SDS011;5346;48.766;8.674;2022-10-26T07:36:27;14.30;;;3.08;;
10596;SDS011;5346;48.766;8.674;2022-10-26T07:39:06;10.23;;;2.80;;
10596;SDS011;5346;48.766;8.674;2022-10-26T07:41:33;9.82;;;3.00;;
10596;SDS011;5346;48.766;8.674;2022-10-26T07:44:01;9.60;;;3.13;;
10596;SDS011;5346;48.766;8.674;2022-10-26T07:46:35;8.90;;;2.92;;
10596;SDS011;5346;48.766;8.674;2022-10-26T07:49:05;6.93;;;3.05;;
10596;SDS011;5346;48.766;8.674;2022-10-26T07:51:35;12.95;;;3.60;;
10596;SDS011;5346;48.766;8.674;2022-10-26T07:54:09;13.10;;;3.10;;
10596;SDS011;5346;48.766;8.674;2022-10-26T07:56:37;6.05;;;2.70;;
10596;SDS011;5346;48.766;8.674;2022-10-26T07:59:04;14.70;;;3.47;;
10596;SDS011;5346;48.766;8.674;2022-10-26T08:01:38;8.75;;;2.92;;
10596;SDS011;5346;48.766;8.674;2022-10-26T08:04:13;10.25;;;2.97;;
10596;SDS011;5346;48.766;8.674;2022-10-26T08:06:54;7.88;;;2.97;;
10596;SDS011;5346;48.766;8.674;2022-10-26T08:09:24;7.50;;;2.95;;
10596;SDS011;5346;48.766;8.674;2022-10-26T08:11:51;8.90;;;3.17;;
10596;SDS011;5346;48.766;8.674;2022-10-26T08:14:31;6.93;;;2.83;;
10596;SDS011;5346;48.766;8.674;2022-10-26T08:16:59;11.73;;;3.22;;
10596;SDS011;5346;48.766;8.674;2022-10-26T08:19:26;10.93;;;3.15;;
10596;SDS011;5346;48.766;8.674;2022-10-26T08:22:00;7.97;;;3.05;;
10596;SDS011;5346;48.766;8.674;2022-10-26T08:24:28;6.00;;;3.05;;
10596;SDS011;5346;48.766;8.674;2022-10-26T08:26:58;9.13;;;3.20;;
10596;SDS011;5346;48.766;8.674;2022-10-26T08:29:32;8.43;;;3.30;;
10596;SDS011;5346;48.766;8.674;2022-10-26T08:31:59;6.57;;;3.03;;
10596;SDS011;5346;48.766;8.674;2022-10-26T08:34:31;8.40;;;2.83;;
10596;SDS011;5346;48.766;8.674;2022-10-26T08:37:05;10.45;;;2.97;;
10596;SDS011;5346;48.766;8.674;2022-10-26T08:39:35;7.78;;;2.78;;
10596;SDS011;5346;48.766;8.674;2022-10-26T08:42:05;8.35;;;3.08;;
10596;SDS011;5346;48.766;8.674;2022-10-26T08:44:45;6.32;;;2.78;;
10596;SDS011;5346;48.766;8.674;2022-10-26T08:47:19;7.00;;;2.83;;
10596;SDS011;5346;48.766;8.674;2022-10-26T08:49:59;9.10;;;3.38;;
10596;SDS011;5346;48.766;8.674;2022-10-26T08:52:49;8.13;;;3.20;;
10596;SDS011;5346;48.766;8.674;2022-10-26T08:55:25;8.20;;;2.83;;
10596;SDS011;5346;48.766;8.674;2022-10-26T08:58:19;9.20;;;3.03;;
10596;SDS011;5346;48.766;8.674;2022-10-26T09:00:57;13.25;;;3.72;;
10596;SDS011;5346;48.766;8.674;2022-10-26T09:03:32;12.35;;;3.72;;
10596;SDS011;5346;48.766;8.674;2022-10-26T09:06:22;10.88;;;3.13;;
10596;SDS011;5346;48.766;8.674;2022-10-26T09:09:12;14.52;;;3.15;;
10596;SDS011;5346;48.766;8.674;2022-10-26T09:17:56;6.63;;;2.67;;
10596;SDS011;5346;48.766;8.674;2022-10-26T09:20:56;9.75;;;3.08;;
10596;SDS011;5346;48.766;8.674;2022-10-26T09:24:14;11.38;;;2.45;;
10596;SDS011;5346;48.766;8.674;2022-10-26T09:26:55;5.65;;;2.60;;
10596;SDS011;5346;48.766;8.674;2022-10-26T09:29:50;7.55;;;2.78;;
10596;SDS011;5346;48.766;8.674;2022-10-26T09:32:30;7.28;;;2.55;;
10596;SDS011;5346;48.766;8.674;2022-10-26T09:35:13;6.90;;;2.40;;
10596;SDS011;5346;48.766;8.674;2022-10-26T09:37:50;6.90;;;2.38;;
10596;SDS011;5346;48.766;8.674;2022-10-26T09:43:28;5.97;;;2.03;;
10596;SDS011;5346;48.766;8.674;2022-10-26T09:46:22;6.60;;;2.35;;
10596;SDS011;5346;48.766;8.674;2022-10-26T09:48:57;6.20;;;1.83;;
10596;SDS011;5346;48.766;8.674;2022-10-26T09:51:37;5.13;;;2.10;;
10596;SDS011;5346;48.766;8.674;2022-10-26T09:54:12;4.72;;;2.33;;
10596;SDS011;5346;48.766;8.674;2022-10-26T09:56:51;5.38;;;1.80;;
10596;SDS011;5346;48.766;8.674;2022-10-26T09:59:23;4.40;;;2.20;;
10596;SDS011;5346;48.766;8.674;2022-10-26T10:01:58;2.28;;;1.60;;
10596;SDS011;5346;48.766;8.674;2022-10-26T10:04:55;7.85;;;2.15;;
10596;SDS011;5346;48.766;8.674;2022-10-26T10:07:30;3.72;;;1.50;;
10596;SDS011;5346;48.766;8.674;2022-10-26T10:10:05;5.22;;;1.98;;
10596;SDS011;5346;48.766;8.674;2022-10-26T10:12:51;4.95;;;1.90;;
10596;SDS011;5346;48.766;8.674;2022-10-26T10:15:20;7.20;;;2.13;;
10596;SDS011;5346;48.766;8.674;2022-10-26T10:17:49;3.42;;;1.52;;
10596;SDS011;5346;48.766;8.674;2022-10-26T10:20:34;9.00;;;2.30;;
10596;SDS011;5346;48.766;8.674;2022-10-26T10:23:03;4.93;;;1.88;;
10596;SDS011;5346;48.766;8.674;2022-10-26T10:26:13;5.80;;;2.20;;
10596;SDS011;5346;48.766;8.674;2022-10-26T10:28:40;5.25;;;2.00;;
10596;SDS011;5346;48.766;8.674;2022-10-26T10:31:28;4.90;;;1.70;;
10596;SDS011;5346;48.766;8.674;2022-10-26T10:33:58;3.90;;;2.08;;
10596;SDS011;5346;48.766;8.674;2022-10-26T10:36:26;4.78;;;1.80;;
10596;SDS011;5346;48.766;8.674;2022-10-26T10:39:02;7.93;;;2.30;;
10596;SDS011;5346;48.766;8.674;2022-10-26T10:41:57;5.80;;;1.90;;
10596;SDS011;5346;48.766;8.674;2022-10-26T10:44:31;5.65;;;1.65;;
10596;SDS011;5346;48.766;8.674;2022-10-26T10:47:03;5.22;;;1.88;;
10596;SDS011;5346;48.766;8.674;2022-10-26T10:49:39;5.57;;;1.80;;
10596;SDS011;5346;48.766;8.674;2022-10-26T10:52:20;6.10;;;2.20;;
10596;SDS011;5346;48.766;8.674;2022-10-26T10:55:16;6.60;;;1.80;;
10596;SDS011;5346;48.766;8.674;2022-10-26T11:00:28;7.30;;;1.90;;
10596;SDS011;5346;48.766;8.674;2022-10-26T11:06:08;3.15;;;1.65;;
10596;SDS011;5346;48.766;8.674;2022-10-26T11:11:36;5.97;;;1.77;;
10596;SDS011;5346;48.766;8.674;2022-10-26T11:14:17;7.85;;;1.75;;
10596;SDS011;5346;48.766;8.674;2022-10-26T11:17:00;5.90;;;2.00;;
10596;SDS011;5346;48.766;8.674;2022-10-26T11:19:39;7.28;;;2.10;;
10596;SDS011;5346;48.766;8.674;2022-10-26T11:22:18;4.38;;;1.77;;
10596;SDS011;5346;48.766;8.674;2022-10-26T11:25:14;4.22;;;2.08;;
10596;SDS011;5346;48.766;8.674;2022-10-26T11:27:53;5.00;;;1.50;;
10596;SDS011;5346;48.766;8.674;2022-10-26T11:30:25;9.07;;;1.58;;
10596;SDS011;5346;48.766;8.674;2022-10-26T11:33:10;5.00;;;1.52;;
10596;SDS011;5346;48.766;8.674;2022-10-26T11:36:18;2.80;;;1.67;;
10596;SDS011;5346;48.766;8.674;2022-10-26T11:38:48;8.48;;;1.60;;
10596;SDS011;5346;48.766;8.674;2022-10-26T11:41:50;7.30;;;1.90;;
10596;SDS011;5346;48.766;8.674;2022-10-26T11:47:18;4.90;;;1.80;;
10596;SDS011;5346;48.766;8.674;2022-10-26T11:50:12;6.18;;;1.90;;
10596;SDS011;5346;48.766;8.674;2022-10-26T11:52:54;5.05;;;1.80;;
10596;SDS011;5346;48.766;8.674;2022-10-26T11:55:33;5.07;;;1.63;;
10596;SDS011;5346;48.766;8.674;2022-10-26T11:58:09;5.70;;;1.80;;
10596;SDS011;5346;48.766;8.674;2022-10-26T12:00:46;4.93;;;1.77;;
10596;SDS011;5346;48.766;8.674;2022-10-26T12:03:29;4.03;;;1.75;;
10596;SDS011;5346;48.766;8.674;2022-10-26T12:06:06;7.22;;;1.80;;
10596;SDS011;5346;48.766;8.674;2022-10-26T12:08:41;4.05;;;1.90;;
10596;SDS011;5346;48.766;8.674;2022-10-26T12:11:33;5.70;;;1.95;;
10596;SDS011;5346;48.766;8.674;2022-10-26T12:22:57;6.82;;;2.22;;
10596;SDS011;5346;48.766;8.674;2022-10-26T12:25:24;6.72;;;2.15;;
10596;SDS011;5346;48.766;8.674;2022-10-26T12:27:53;6.25;;;1.85;;
10596;SDS011;5346;48.766;8.674;2022-10-26T12:30:35;4.05;;;1.73;;
10596;SDS011;5346;48.766;8.674;2022-10-26T12:33:02;7.10;;;1.98;;
10596;SDS011;5346;48.766;8.674;2022-10-26T12:36:01;6.78;;;1.65;;
10596;SDS011;5346;48.766;8.674;2022-10-26T12:38:53;5.22;;;1.92;;
10596;SDS011;5346;48.766;8.674;2022-10-26T12:41:29;10.50;;;2.08;;
10596;SDS011;5346;48.766;8.674;2022-10-26T12:44:01;6.10;;;1.90;;
10596;SDS011;5346;48.766;8.674;2022-10-26T12:46:57;4.15;;;1.50;;
10596;SDS011;5346;48.766;8.674;2022-10-26T12:52:40;9.63;;;2.50;;
10596;SDS011;5346;48.766;8.674;2022-10-26T13:07:45;6.60;;;1.88;;
10596;SDS011;5346;48.766;8.674;2022-10-26T13:10:20;8.02;;;2.28;;
10596;SDS011;5346;48.766;8.674;2022-10-26T13:12:53;6.15;;;2.00;;
10596;SDS011;5346;48.766;8.674;2022-10-26T13:15:37;5.63;;;2.08;;
10596;SDS011;5346;48.766;8.674;2022-10-26T13:20:51;4.97;;;2.10;;
10596;SDS011;5346;48.766;8.674;2022-10-26T13:23:28;3.75;;;1.92;;
10596;SDS011;5346;48.766;8.674;2022-10-26T13:26:13;8.95;;;2.33;;
10596;SDS011;5346;48.766;8.674;2022-10-26T13:37:02;9.77;;;2.05;;
10596;SDS011;5346;48.766;8.674;2022-10-26T13:39:38;7.82;;;1.92;;
10596;SDS011;5346;48.766;8.674;2022-10-26T13:42:16;8.77;;;2.13;;
10596;SDS011;5346;48.766;8.674;2022-10-26T13:44:56;5.25;;;1.88;;
10596;SDS011;5346;48.766;8.674;2022-10-26T13:47:43;3.85;;;1.70;;
10596;SDS011;5346;48.766;8.674;2022-10-26T13:50:24;3.78;;;1.90;;
10596;SDS011;5346;48.766;8.674;2022-10-26T13:53:04;6.72;;;1.50;;
10596;SDS011;5346;48.766;8.674;2022-10-26T13:55:45;4.70;;;1.67;;
10596;SDS011;5346;48.766;8.674;2022-10-26T13:58:27;5.55;;;2.10;;
10596;SDS011;5346;48.766;8.674;2022-10-26T14:03:57;6.55;;;2.00;;
10596;SDS011;5346;48.766;8.674;2022-10-26T14:06:38;7.47;;;1.80;;
10596;SDS011;5346;48.766;8.674;2022-10-26T14:09:14;6.25;;;1.70;;
10596;SDS011;5346;48.766;8.674;2022-10-26T14:11:48;7.15;;;2.10;;
10596;SDS011;5346;48.766;8.674;2022-10-26T14:14:28;6.30;;;1.75;;
10596;SDS011;5346;48.766;8.674;2022-10-26T14:17:01;7.88;;;2.00;;
10596;SDS011;5346;48.766;8.674;2022-10-26T14:19:37;5.20;;;1.90;;
10596;SDS011;5346;48.766;8.674;2022-10-26T14:22:06;5.32;;;1.63;;
10596;SDS011;5346;48.766;8.674;2022-10-26T14:24:34;10.23;;;1.98;;
10596;SDS011;5346;48.766;8.674;2022-10-26T14:27:14;4.85;;;2.00;;
10596;SDS011;5346;48.766;8.674;2022-10-26T14:29:43;9.13;;;2.08;;
10596;SDS011;5346;48.766;8.674;2022-10-26T14:32:31;7.20;;;2.25;;
10596;SDS011;5346;48.766;8.674;2022-10-26T14:35:09;6.85;;;1.77;;
10596;SDS011;5346;48.766;8.674;2022-10-26T14:37:40;7.25;;;1.85;;
10596;SDS011;5346;48.766;8.674;2022-10-26T14:40:20;4.63;;;1.70;;
10596;SDS011;5346;48.766;8.674;2022-10-26T14:42:54;7.95;;;1.90;;
10596;SDS011;5346;48.766;8.674;2022-10-26T14:45:36;5.63;;;1.60;;
10596;SDS011;5346;48.766;8.674;2022-10-26T14:48:33;9.52;;;2.10;;
10596;SDS011;5346;48.766;8.674;2022-10-26T14:51:15;6.13;;;2.10;;
10596;SDS011;5346;48.766;8.674;2022-10-26T14:53:48;6.20;;;1.70;;
10596;SDS011;5346;48.766;8.674;2022-10-26T14:56:25;7.60;;;2.10;;
10596;SDS011;5346;48.766;8.674;2022-10-26T14:58:57;6.60;;;2.20;;
10596;SDS011;5346;48.766;8.674;2022-10-26T15:01:31;5.95;;;1.92;;
10596;SDS011;5346;48.766;8.674;2022-10-26T15:04:03;3.55;;;1.90;;
10596;SDS011;5346;48.766;8.674;2022-10-26T15:06:52;4.07;;;1.90;;
10596;SDS011;5346;48.766;8.674;2022-10-26T15:09:30;8.20;;;1.88;;
10596;SDS011;5346;48.766;8.674;2022-10-26T15:12:24;9.90;;;1.85;;
10596;SDS011;5346;48.766;8.674;2022-10-26T15:15:08;4.00;;;1.98;;
10596;SDS011;5346;48.766;8.674;2022-10-26T15:17:53;3.28;;;2.03;;
10596;SDS011;5346;48.766;8.674;2022-10-26T15:20:23;4.43;;;1.80;;
10596;SDS011;5346;48.766;8.674;2022-10-26T15:22:53;9.15;;;2.10;;
10596;SDS011;5346;48.766;8.674;2022-10-26T15:25:29;3.85;;;1.80;;
10596;SDS011;5346;48.766;8.674;2022-10-26T15:33:42;12.77;;;2.78;;
10596;SDS011;5346;48.766;8.674;2022-10-26T15:36:27;5.85;;;2.28;;
10596;SDS011;5346;48.766;8.674;2022-10-26T15:38:58;8.80;;;2.28;;
10596;SDS011;5346;48.766;8.674;2022-10-26T15:41:35;7.03;;;2.42;;
10596;SDS011;5346;48.766;8.674;2022-10-26T15:44:16;3.42;;;2.10;;
10596;SDS011;5346;48.766;8.674;2022-10-26T15:46:47;6.72;;;2.10;;
10596;SDS011;5346;48.766;8.674;2022-10-26T15:49:19;8.40;;;2.00;;
10596;SDS011;5346;48.766;8.674;2022-10-26T15:51:59;7.18;;;2.00;;
10596;SDS011;5346;48.766;8.674;2022-10-26T15:54:27;9.35;;;2.45;;
10596;SDS011;5346;48.766;8.674;2022-10-26T15:56:54;8.55;;;2.28;;
10596;SDS011;5346;48.766;8.674;2022-10-26T15:59:28;6.13;;;2.00;;
10596;SDS011;5346;48.766;8.674;2022-10-26T16:01:58;7.80;;;2.30;;
10596;SDS011;5346;48.766;8.674;2022-10-26T16:04:43;9.93;;;2.50;;
10596;SDS011;5346;48.766;8.674;2022-10-26T16:07:24;8.75;;;2.63;;
10596;SDS011;5346;48.766;8.674;2022-10-26T16:09:59;9.27;;;2.20;;
10596;SDS011;5346;48.766;8.674;2022-10-26T16:12:28;7.40;;;2.55;;
10596;SDS011;5346;48.766;8.674;2022-10-26T16:14:55;11.00;;;2.60;;
10596;SDS011;5346;48.766;8.674;2022-10-26T16:17:31;4.55;;;2.28;;
10596;SDS011;5346;48.766;8.674;2022-10-26T16:20:01;11.10;;;2.83;;
10596;SDS011;5346;48.766;8.674;2022-10-26T16:22:34;6.68;;;2.65;;
10596;SDS011;5346;48.766;8.674;2022-10-26T16:25:08;11.35;;;2.55;;
10596;SDS011;5346;48.766;8.674;2022-10-26T16:27:36;8.30;;;2.45;;
10596;SDS011;5346;48.766;8.674;2022-10-26T16:30:03;7.47;;;2.58;;
10596;SDS011;5346;48.766;8.674;2022-10-26T16:32:38;5.45;;;2.20;;
10596;SDS011;5346;48.766;8.674;2022-10-26T16:35:11;7.07;;;2.50;;
10596;SDS011;5346;48.766;8.674;2022-10-26T16:37:38;7.03;;;2.38;;
10596;SDS011;5346;48.766;8.674;2022-10-26T16:40:13;13.38;;;2.97;;
10596;SDS011;5346;48.766;8.674;2022-10-26T16:42:40;7.20;;;2.70;;
10596;SDS011;5346;48.766;8.674;2022-10-26T16:45:13;7.00;;;2.78;;
10596;SDS011;5346;48.766;8.674;2022-10-26T16:47:47;5.60;;;2.50;;
10596;SDS011;5346;48.766;8.674;2022-10-26T16:50:15;6.47;;;2.35;;
10596;SDS011;5346;48.766;8.674;2022-10-26T16:52:46;7.45;;;2.72;;
10596;SDS011;5346;48.766;8.674;2022-10-26T16:55:20;10.02;;;3.50;;
10596;SDS011;5346;48.766;8.674;2022-10-26T16:57:49;8.38;;;3.10;;
10596;SDS011;5346;48.766;8.674;2022-10-26T17:00:17;7.00;;;2.90;;
10596;SDS011;5346;48.766;8.674;2022-10-26T17:02:51;6.03;;;2.78;;
10596;SDS011;5346;48.766;8.674;2022-10-26T17:05:19;10.73;;;4.30;;
10596;SDS011;5346;48.766;8.674;2022-10-26T17:07:59;12.40;;;3.50;;
10596;SDS011;5346;48.766;8.674;2022-10-26T17:10:27;13.57;;;4.68;;
10596;SDS011;5346;48.766;8.674;2022-10-26T17:12:54;6.40;;;3.53;;
10596;SDS011;5346;48.766;8.674;2022-10-26T17:15:28;6.93;;;3.03;;
10596;SDS011;5346;48.766;8.674;2022-10-26T17:17:58;9.70;;;3.55;;
10596;SDS011;5346;48.766;8.674;2022-10-26T17:20:25;11.07;;;2.88;;
10596;SDS011;5346;48.766;8.674;2022-10-26T17:23:00;9.23;;;3.00;;
10596;SDS011;5346;48.766;8.674;2022-10-26T17:25:34;9.10;;;2.92;;
10596;SDS011;5346;48.766;8.674;2022-10-26T17:28:10;7.75;;;3.20;;
10596;SDS011;5346;48.766;8.674;2022-10-26T17:30:38;9.25;;;3.10;;
10596;SDS011;5346;48.766;8.674;2022-10-26T17:33:06;9.65;;;3.42;;
10596;SDS011;5346;48.766;8.674;2022-10-26T17:35:41;10.77;;;2.92;;
10596;SDS011;5346;48.766;8.674;2022-10-26T17:38:08;9.35;;;3.95;;